sensor_id;sensor_type;location;lat;lon;timestamp;P1;durP1;ratioP1;P2;durP2;ratioP2
71973;SDS011;59840;52.122;5.404;2023-10-08T00:00:33;10.45;;;2.85;;
71973;SDS011;59840;52.122;5.404;2023-10-08T00:03:09;10.50;;;2.75;;
71973;SDS011;59840;52.122;5.404;2023-10-08T00:05:37;11.57;;;2.27;;
71973;SDS011;59840;52.122;5.404;2023-10-08T00:08:04;13.00;;;3.38;;
71973;SDS011;59840;52.122;5.404;2023-10-08T00:10:38;10.35;;;2.75;;
71973;SDS011;59840;52.122;5.404;2023-10-08T00:13:07;12.77;;;3.45;;
71973;SDS011;59840;52.122;5.404;2023-10-08T00:15:36;12.07;;;2.97;;
71973;SDS011;59840;52.122;5.404;2023-10-08T00:18:03;12.23;;;2.87;;
71973;SDS011;59840;52.122;5.404;2023-10-08T00:20:34;8.88;;;2.45;;
71973;SDS011;59840;52.122;5.404;2023-10-08T00:23:09;9.98;;;2.70;;
71973;SDS011;59840;52.122;5.404;2023-10-08T00:25:36;10.55;;;2.70;;
71973;SDS011;59840;52.122;5.404;2023-10-08T00:28:09;12.57;;;3.75;;
71973;SDS011;59840;52.122;5.404;2023-10-08T00:30:40;8.87;;;2.87;;
71973;SDS011;59840;52.122;5.404;2023-10-08T00:33:08;10.63;;;2.85;;
71973;SDS011;59840;52.122;5.404;2023-10-08T00:35:38;12.70;;;2.50;;
71973;SDS011;59840;52.122;5.404;2023-10-08T00:38:09;12.55;;;3.72;;
71973;SDS011;59840;52.122;5.404;2023-10-08T00:40:46;11.77;;;2.95;;
71973;SDS011;59840;52.122;5.404;2023-10-08T00:43:29;13.90;;;2.93;;
71973;SDS011;59840;52.122;5.404;2023-10-08T00:46:04;8.32;;;2.75;;
71973;SDS011;59840;52.122;5.404;2023-10-08T00:48:37;16.58;;;2.92;;
71973;SDS011;59840;52.122;5.404;2023-10-08T00:51:04;12.55;;;3.15;;
71973;SDS011;59840;52.122;5.404;2023-10-08T00:56:33;15.27;;;2.93;;
71973;SDS011;59840;52.122;5.404;2023-10-08T00:59:19;10.40;;;3.53;;
71973;SDS011;59840;52.122;5.404;2023-10-08T01:01:48;13.82;;;2.67;;
71973;SDS011;59840;52.122;5.404;2023-10-08T01:04:23;14.70;;;2.88;;
71973;SDS011;59840;52.122;5.404;2023-10-08T01:06:53;9.20;;;3.15;;
71973;SDS011;59840;52.122;5.404;2023-10-08T01:09:25;8.67;;;2.63;;
71973;SDS011;59840;52.122;5.404;2023-10-08T01:14:39;9.20;;;2.72;;
71973;SDS011;59840;52.122;5.404;2023-10-08T01:17:12;11.38;;;3.03;;
71973;SDS011;59840;52.122;5.404;2023-10-08T01:19:43;10.52;;;2.72;;
71973;SDS011;59840;52.122;5.404;2023-10-08T01:22:12;10.27;;;3.07;;
71973;SDS011;59840;52.122;5.404;2023-10-08T01:24:43;5.68;;;2.70;;
71973;SDS011;59840;52.122;5.404;2023-10-08T01:27:09;9.35;;;3.00;;
71973;SDS011;59840;52.122;5.404;2023-10-08T01:29:38;9.60;;;2.60;;
71973;SDS011;59840;52.122;5.404;2023-10-08T01:32:05;12.82;;;3.05;;
71973;SDS011;59840;52.122;5.404;2023-10-08T01:34:37;9.37;;;2.93;;
71973;SDS011;59840;52.122;5.404;2023-10-08T01:37:05;10.32;;;2.70;;
71973;SDS011;59840;52.122;5.404;2023-10-08T01:39:36;7.53;;;2.63;;
71973;SDS011;59840;52.122;5.404;2023-10-08T01:42:04;9.50;;;3.35;;
71973;SDS011;59840;52.122;5.404;2023-10-08T01:44:31;12.30;;;2.58;;
71973;SDS011;59840;52.122;5.404;2023-10-08T01:47:00;14.67;;;2.87;;
71973;SDS011;59840;52.122;5.404;2023-10-08T01:49:27;10.00;;;2.78;;
71973;SDS011;59840;52.122;5.404;2023-10-08T01:51:58;9.68;;;2.90;;
71973;SDS011;59840;52.122;5.404;2023-10-08T01:54:31;9.77;;;3.05;;
71973;SDS011;59840;52.122;5.404;2023-10-08T01:57:02;13.00;;;3.08;;
71973;SDS011;59840;52.122;5.404;2023-10-08T01:59:30;15.07;;;2.97;;
71973;SDS011;59840;52.122;5.404;2023-10-08T02:01:58;15.50;;;2.80;;
71973;SDS011;59840;52.122;5.404;2023-10-08T02:04:25;10.98;;;2.65;;
71973;SDS011;59840;52.122;5.404;2023-10-08T02:06:52;13.23;;;3.13;;
71973;SDS011;59840;52.122;5.404;2023-10-08T02:09:18;17.65;;;3.97;;
71973;SDS011;59840;52.122;5.404;2023-10-08T02:11:52;11.77;;;3.03;;
71973;SDS011;59840;52.122;5.404;2023-10-08T02:14:22;10.55;;;2.70;;
71973;SDS011;59840;52.122;5.404;2023-10-08T02:16:49;11.15;;;3.42;;
71973;SDS011;59840;52.122;5.404;2023-10-08T02:19:18;9.25;;;3.42;;
71973;SDS011;59840;52.122;5.404;2023-10-08T02:21:54;11.07;;;3.60;;
71973;SDS011;59840;52.122;5.404;2023-10-08T02:24:22;12.80;;;3.20;;
71973;SDS011;59840;52.122;5.404;2023-10-08T02:26:52;10.98;;;3.10;;
71973;SDS011;59840;52.122;5.404;2023-10-08T02:29:19;12.50;;;3.58;;
71973;SDS011;59840;52.122;5.404;2023-10-08T02:31:46;11.93;;;3.28;;
71973;SDS011;59840;52.122;5.404;2023-10-08T02:34:12;12.27;;;2.90;;
71973;SDS011;59840;52.122;5.404;2023-10-08T02:36:39;10.40;;;2.77;;
71973;SDS011;59840;52.122;5.404;2023-10-08T02:39:09;15.18;;;3.38;;
71973;SDS011;59840;52.122;5.404;2023-10-08T02:41:48;10.13;;;3.47;;
71973;SDS011;59840;52.122;5.404;2023-10-08T02:44:16;10.20;;;3.35;;
71973;SDS011;59840;52.122;5.404;2023-10-08T02:46:44;10.63;;;3.22;;
71973;SDS011;59840;52.122;5.404;2023-10-08T02:49:14;8.00;;;3.10;;
71973;SDS011;59840;52.122;5.404;2023-10-08T02:51:53;12.38;;;3.47;;
71973;SDS011;59840;52.122;5.404;2023-10-08T02:54:21;8.00;;;2.88;;
71973;SDS011;59840;52.122;5.404;2023-10-08T02:56:59;13.27;;;3.20;;
71973;SDS011;59840;52.122;5.404;2023-10-08T02:59:30;12.38;;;3.17;;
71973;SDS011;59840;52.122;5.404;2023-10-08T03:02:08;11.63;;;3.10;;
71973;SDS011;59840;52.122;5.404;2023-10-08T03:04:45;13.55;;;3.47;;
71973;SDS011;59840;52.122;5.404;2023-10-08T03:07:13;12.32;;;3.25;;
71973;SDS011;59840;52.122;5.404;2023-10-08T03:09:52;10.27;;;2.95;;
71973;SDS011;59840;52.122;5.404;2023-10-08T03:12:30;11.38;;;3.28;;
71973;SDS011;59840;52.122;5.404;2023-10-08T03:15:02;11.53;;;2.93;;
71973;SDS011;59840;52.122;5.404;2023-10-08T03:18:01;9.48;;;3.15;;
71973;SDS011;59840;52.122;5.404;2023-10-08T03:20:36;11.18;;;2.90;;
71973;SDS011;59840;52.122;5.404;2023-10-08T03:23:09;8.80;;;3.50;;
71973;SDS011;59840;52.122;5.404;2023-10-08T03:25:53;6.75;;;3.20;;
71973;SDS011;59840;52.122;5.404;2023-10-08T03:28:29;8.57;;;2.57;;
71973;SDS011;59840;52.122;5.404;2023-10-08T03:30:56;12.57;;;2.95;;
71973;SDS011;59840;52.122;5.404;2023-10-08T03:33:33;9.43;;;2.75;;
71973;SDS011;59840;52.122;5.404;2023-10-08T03:36:01;11.18;;;3.15;;
71973;SDS011;59840;52.122;5.404;2023-10-08T03:38:47;7.10;;;2.50;;
71973;SDS011;59840;52.122;5.404;2023-10-08T03:41:22;8.13;;;3.00;;
71973;SDS011;59840;52.122;5.404;2023-10-08T03:43:56;9.55;;;3.17;;
71973;SDS011;59840;52.122;5.404;2023-10-08T03:46:39;11.73;;;3.58;;
71973;SDS011;59840;52.122;5.404;2023-10-08T03:49:17;9.68;;;3.28;;
71973;SDS011;59840;52.122;5.404;2023-10-08T03:51:47;7.20;;;2.83;;
71973;SDS011;59840;52.122;5.404;2023-10-08T03:54:18;8.93;;;2.97;;
71973;SDS011;59840;52.122;5.404;2023-10-08T03:56:46;13.25;;;3.70;;
71973;SDS011;59840;52.122;5.404;2023-10-08T03:59:15;11.95;;;4.25;;
71973;SDS011;59840;52.122;5.404;2023-10-08T04:02:01;14.63;;;4.80;;
71973;SDS011;59840;52.122;5.404;2023-10-08T04:04:41;10.20;;;3.50;;
71973;SDS011;59840;52.122;5.404;2023-10-08T04:07:24;17.90;;;4.47;;
71973;SDS011;59840;52.122;5.404;2023-10-08T04:10:00;14.43;;;4.43;;
71973;SDS011;59840;52.122;5.404;2023-10-08T04:12:36;12.93;;;4.07;;
71973;SDS011;59840;52.122;5.404;2023-10-08T04:15:10;20.38;;;4.43;;
71973;SDS011;59840;52.122;5.404;2023-10-08T04:17:38;15.90;;;4.35;;
71973;SDS011;59840;52.122;5.404;2023-10-08T04:20:13;10.00;;;3.60;;
71973;SDS011;59840;52.122;5.404;2023-10-08T04:23:00;11.77;;;3.20;;
71973;SDS011;59840;52.122;5.404;2023-10-08T04:25:32;10.70;;;3.10;;
71973;SDS011;59840;52.122;5.404;2023-10-08T04:27:59;9.02;;;2.83;;
71973;SDS011;59840;52.122;5.404;2023-10-08T04:30:36;12.57;;;2.60;;
71973;SDS011;59840;52.122;5.404;2023-10-08T04:33:03;12.20;;;2.67;;
71973;SDS011;59840;52.122;5.404;2023-10-08T04:35:34;8.52;;;2.17;;
71973;SDS011;59840;52.122;5.404;2023-10-08T04:38:15;10.45;;;2.05;;
71973;SDS011;59840;52.122;5.404;2023-10-08T04:40:45;7.45;;;2.20;;
71973;SDS011;59840;52.122;5.404;2023-10-08T04:43:15;14.07;;;2.58;;
71973;SDS011;59840;52.122;5.404;2023-10-08T04:45:49;7.60;;;2.60;;
71973;SDS011;59840;52.122;5.404;2023-10-08T04:48:16;9.57;;;2.50;;
71973;SDS011;59840;52.122;5.404;2023-10-08T04:50:50;14.05;;;2.63;;
71973;SDS011;59840;52.122;5.404;2023-10-08T04:55:58;7.13;;;2.28;;
71973;SDS011;59840;52.122;5.404;2023-10-08T04:58:32;8.37;;;2.07;;
71973;SDS011;59840;52.122;5.404;2023-10-08T05:01:00;9.38;;;2.30;;
71973;SDS011;59840;52.122;5.404;2023-10-08T05:03:47;13.63;;;2.28;;
71973;SDS011;59840;52.122;5.404;2023-10-08T05:06:25;7.57;;;2.13;;
71973;SDS011;59840;52.122;5.404;2023-10-08T05:09:06;8.48;;;2.20;;
71973;SDS011;59840;52.122;5.404;2023-10-08T05:11:54;5.53;;;2.07;;
71973;SDS011;59840;52.122;5.404;2023-10-08T05:14:21;6.63;;;1.60;;
71973;SDS011;59840;52.122;5.404;2023-10-08T05:17:02;10.15;;;2.05;;
71973;SDS011;59840;52.122;5.404;2023-10-08T05:19:57;14.30;;;2.95;;
71973;SDS011;59840;52.122;5.404;2023-10-08T05:22:33;7.72;;;1.92;;
71973;SDS011;59840;52.122;5.404;2023-10-08T05:25:00;13.03;;;2.50;;
71973;SDS011;59840;52.122;5.404;2023-10-08T05:27:45;7.85;;;2.28;;
71973;SDS011;59840;52.122;5.404;2023-10-08T05:30:19;8.40;;;2.55;;
71973;SDS011;59840;52.122;5.404;2023-10-08T05:33:04;10.02;;;2.65;;
71973;SDS011;59840;52.122;5.404;2023-10-08T05:35:33;8.07;;;2.67;;
71973;SDS011;59840;52.122;5.404;2023-10-08T05:40:53;12.63;;;2.55;;
71973;SDS011;59840;52.122;5.404;2023-10-08T05:43:40;6.78;;;2.00;;
71973;SDS011;59840;52.122;5.404;2023-10-08T05:46:07;5.53;;;1.88;;
71973;SDS011;59840;52.122;5.404;2023-10-08T05:48:50;4.93;;;1.08;;
71973;SDS011;59840;52.122;5.404;2023-10-08T05:51:31;8.20;;;1.17;;
71973;SDS011;59840;52.122;5.404;2023-10-08T05:54:31;5.78;;;0.90;;
71973;SDS011;59840;52.122;5.404;2023-10-08T05:59:50;5.00;;;0.98;;
71973;SDS011;59840;52.122;5.404;2023-10-08T06:04:56;5.00;;;1.00;;
71973;SDS011;59840;52.122;5.404;2023-10-08T06:10:29;2.17;;;0.60;;
71973;SDS011;59840;52.122;5.404;2023-10-08T06:15:38;2.55;;;0.60;;
71973;SDS011;59840;52.122;5.404;2023-10-08T06:18:18;2.40;;;0.37;;
71973;SDS011;59840;52.122;5.404;2023-10-08T06:20:46;5.22;;;0.35;;
71973;SDS011;59840;52.122;5.404;2023-10-08T06:23:13;3.75;;;0.63;;
71973;SDS011;59840;52.122;5.404;2023-10-08T06:25:46;1.17;;;0.30;;
71973;SDS011;59840;52.122;5.404;2023-10-08T06:28:13;1.17;;;0.40;;
71973;SDS011;59840;52.122;5.404;2023-10-08T06:30:42;1.90;;;0.33;;
71973;SDS011;59840;52.122;5.404;2023-10-08T06:33:12;4.05;;;0.50;;
71973;SDS011;59840;52.122;5.404;2023-10-08T06:35:40;3.05;;;0.70;;
71973;SDS011;59840;52.122;5.404;2023-10-08T06:38:11;1.17;;;0.50;;
71973;SDS011;59840;52.122;5.404;2023-10-08T06:40:41;4.45;;;0.70;;
71973;SDS011;59840;52.122;5.404;2023-10-08T06:43:09;2.73;;;0.40;;
71973;SDS011;59840;52.122;5.404;2023-10-08T06:45:44;2.30;;;0.30;;
71973;SDS011;59840;52.122;5.404;2023-10-08T06:48:15;3.70;;;0.47;;
71973;SDS011;59840;52.122;5.404;2023-10-08T06:50:47;3.83;;;0.88;;
71973;SDS011;59840;52.122;5.404;2023-10-08T06:53:15;1.92;;;0.60;;
71973;SDS011;59840;52.122;5.404;2023-10-08T06:55:44;3.90;;;0.80;;
71973;SDS011;59840;52.122;5.404;2023-10-08T06:58:11;2.55;;;0.52;;
71973;SDS011;59840;52.122;5.404;2023-10-08T07:00:38;2.40;;;0.60;;
71973;SDS011;59840;52.122;5.404;2023-10-08T07:03:06;1.77;;;0.60;;
71973;SDS011;59840;52.122;5.404;2023-10-08T07:05:35;1.77;;;0.75;;
71973;SDS011;59840;52.122;5.404;2023-10-08T07:08:08;3.70;;;0.50;;
71973;SDS011;59840;52.122;5.404;2023-10-08T07:10:34;0.85;;;0.60;;
71973;SDS011;59840;52.122;5.404;2023-10-08T07:13:02;2.50;;;0.65;;
71973;SDS011;59840;52.122;5.404;2023-10-08T07:15:32;1.70;;;0.60;;
71973;SDS011;59840;52.122;5.404;2023-10-08T07:17:58;1.42;;;0.70;;
71973;SDS011;59840;52.122;5.404;2023-10-08T07:20:37;0.90;;;0.57;;
71973;SDS011;59840;52.122;5.404;2023-10-08T07:23:08;1.05;;;0.55;;
71973;SDS011;59840;52.122;5.404;2023-10-08T07:25:54;1.60;;;0.75;;
71973;SDS011;59840;52.122;5.404;2023-10-08T07:28:38;1.13;;;0.57;;
71973;SDS011;59840;52.122;5.404;2023-10-08T07:31:14;2.83;;;0.90;;
71973;SDS011;59840;52.122;5.404;2023-10-08T07:33:50;2.03;;;0.90;;
71973;SDS011;59840;52.122;5.404;2023-10-08T07:36:26;1.80;;;0.90;;
71973;SDS011;59840;52.122;5.404;2023-10-08T07:38:53;1.25;;;0.63;;
71973;SDS011;59840;52.122;5.404;2023-10-08T07:41:20;2.28;;;0.75;;
71973;SDS011;59840;52.122;5.404;2023-10-08T07:43:47;4.75;;;0.98;;
71973;SDS011;59840;52.122;5.404;2023-10-08T07:46:25;1.47;;;1.13;;
71973;SDS011;59840;52.122;5.404;2023-10-08T07:48:53;1.70;;;0.90;;
71973;SDS011;59840;52.122;5.404;2023-10-08T07:51:20;2.10;;;1.00;;
71973;SDS011;59840;52.122;5.404;2023-10-08T07:53:53;1.73;;;0.90;;
71973;SDS011;59840;52.122;5.404;2023-10-08T07:56:22;1.80;;;1.15;;
71973;SDS011;59840;52.122;5.404;2023-10-08T07:58:50;2.20;;;1.03;;
71973;SDS011;59840;52.122;5.404;2023-10-08T08:01:17;2.10;;;1.20;;
71973;SDS011;59840;52.122;5.404;2023-10-08T08:03:47;2.20;;;1.10;;
71973;SDS011;59840;52.122;5.404;2023-10-08T08:06:15;2.67;;;1.13;;
71973;SDS011;59840;52.122;5.404;2023-10-08T08:08:42;2.60;;;0.93;;
71973;SDS011;59840;52.122;5.404;2023-10-08T08:11:10;2.20;;;1.30;;
71973;SDS011;59840;52.122;5.404;2023-10-08T08:13:44;2.88;;;1.50;;
71973;SDS011;59840;52.122;5.404;2023-10-08T08:16:11;1.90;;;1.40;;
71973;SDS011;59840;52.122;5.404;2023-10-08T08:18:47;1.50;;;1.20;;
71973;SDS011;59840;52.122;5.404;2023-10-08T08:21:15;1.80;;;1.20;;
71973;SDS011;59840;52.122;5.404;2023-10-08T08:23:43;1.80;;;1.10;;
71973;SDS011;59840;52.122;5.404;2023-10-08T08:26:16;2.30;;;1.20;;
71973;SDS011;59840;52.122;5.404;2023-10-08T08:28:56;2.42;;;1.20;;
71973;SDS011;59840;52.122;5.404;2023-10-08T08:31:26;1.63;;;1.08;;
71973;SDS011;59840;52.122;5.404;2023-10-08T08:33:58;2.03;;;1.20;;
71973;SDS011;59840;52.122;5.404;2023-10-08T08:36:30;1.83;;;1.07;;
71973;SDS011;59840;52.122;5.404;2023-10-08T08:38:58;2.42;;;1.20;;
71973;SDS011;59840;52.122;5.404;2023-10-08T08:41:24;2.95;;;1.20;;
71973;SDS011;59840;52.122;5.404;2023-10-08T08:43:52;2.22;;;1.50;;
71973;SDS011;59840;52.122;5.404;2023-10-08T08:46:30;2.20;;;1.40;;
71973;SDS011;59840;52.122;5.404;2023-10-08T08:49:05;4.37;;;1.63;;
71973;SDS011;59840;52.122;5.404;2023-10-08T08:51:36;3.13;;;1.00;;
71973;SDS011;59840;52.122;5.404;2023-10-08T08:54:05;1.90;;;1.20;;
71973;SDS011;59840;52.122;5.404;2023-10-08T08:56:35;2.80;;;1.15;;
71973;SDS011;59840;52.122;5.404;2023-10-08T08:59:05;6.03;;;5.00;;
71973;SDS011;59840;52.122;5.404;2023-10-08T09:01:31;2.37;;;1.40;;
71973;SDS011;59840;52.122;5.404;2023-10-08T09:04:00;3.38;;;1.50;;
71973;SDS011;59840;52.122;5.404;2023-10-08T09:06:32;3.47;;;1.30;;
71973;SDS011;59840;52.122;5.404;2023-10-08T09:09:03;1.63;;;0.63;;
71973;SDS011;59840;52.122;5.404;2023-10-08T09:12:00;1.80;;;1.15;;
71973;SDS011;59840;52.122;5.404;2023-10-08T09:14:27;2.50;;;1.27;;
71973;SDS011;59840;52.122;5.404;2023-10-08T09:17:00;1.92;;;1.27;;
71973;SDS011;59840;52.122;5.404;2023-10-08T09:19:35;2.13;;;1.10;;
71973;SDS011;59840;52.122;5.404;2023-10-08T09:24:32;1.63;;;1.20;;
71973;SDS011;59840;52.122;5.404;2023-10-08T09:27:00;2.07;;;1.00;;
71973;SDS011;59840;52.122;5.404;2023-10-08T09:29:28;3.40;;;1.35;;
71973;SDS011;59840;52.122;5.404;2023-10-08T09:31:56;2.20;;;1.17;;
71973;SDS011;59840;52.122;5.404;2023-10-08T09:34:28;2.63;;;1.20;;
71973;SDS011;59840;52.122;5.404;2023-10-08T09:36:56;2.17;;;1.10;;
71973;SDS011;59840;52.122;5.404;2023-10-08T09:39:29;1.40;;;0.97;;
71973;SDS011;59840;52.122;5.404;2023-10-08T09:42:03;1.70;;;1.15;;
71973;SDS011;59840;52.122;5.404;2023-10-08T09:44:33;2.50;;;1.17;;
71973;SDS011;59840;52.122;5.404;2023-10-08T09:47:07;2.30;;;1.33;;
71973;SDS011;59840;52.122;5.404;2023-10-08T09:49:40;1.98;;;1.27;;
71973;SDS011;59840;52.122;5.404;2023-10-08T09:52:10;2.30;;;1.10;;
71973;SDS011;59840;52.122;5.404;2023-10-08T09:54:49;2.60;;;1.33;;
71973;SDS011;59840;52.122;5.404;2023-10-08T09:57:20;2.22;;;1.20;;
71973;SDS011;59840;52.122;5.404;2023-10-08T09:59:50;2.92;;;1.50;;
71973;SDS011;59840;52.122;5.404;2023-10-08T10:02:16;2.75;;;1.25;;
71973;SDS011;59840;52.122;5.404;2023-10-08T10:04:44;1.97;;;1.30;;
71973;SDS011;59840;52.122;5.404;2023-10-08T10:07:12;5.45;;;1.50;;
71973;SDS011;59840;52.122;5.404;2023-10-08T10:09:43;1.70;;;1.20;;
71973;SDS011;59840;52.122;5.404;2023-10-08T10:12:17;2.30;;;1.63;;
71973;SDS011;59840;52.122;5.404;2023-10-08T10:14:45;2.00;;;1.35;;
71973;SDS011;59840;52.122;5.404;2023-10-08T10:17:19;2.63;;;1.60;;
71973;SDS011;59840;52.122;5.404;2023-10-08T10:20:08;3.03;;;1.90;;
71973;SDS011;59840;52.122;5.404;2023-10-08T10:22:41;2.20;;;1.75;;
71973;SDS011;59840;52.122;5.404;2023-10-08T10:25:10;2.85;;;2.22;;
71973;SDS011;59840;52.122;5.404;2023-10-08T10:27:42;1.92;;;1.75;;
71973;SDS011;59840;52.122;5.404;2023-10-08T10:30:20;2.43;;;1.63;;
71973;SDS011;59840;52.122;5.404;2023-10-08T10:32:53;3.08;;;2.22;;
71973;SDS011;59840;52.122;5.404;2023-10-08T10:35:21;2.50;;;2.22;;
71973;SDS011;59840;52.122;5.404;2023-10-08T10:37:47;2.60;;;2.28;;
71973;SDS011;59840;52.122;5.404;2023-10-08T10:40:22;3.08;;;2.20;;
71973;SDS011;59840;52.122;5.404;2023-10-08T10:43:05;2.50;;;2.30;;
71973;SDS011;59840;52.122;5.404;2023-10-08T10:45:33;2.65;;;1.92;;
71973;SDS011;59840;52.122;5.404;2023-10-08T10:48:03;2.60;;;2.40;;
71973;SDS011;59840;52.122;5.404;2023-10-08T10:50:48;5.32;;;2.95;;
71973;SDS011;59840;52.122;5.404;2023-10-08T10:53:40;4.50;;;2.08;;
71973;SDS011;59840;52.122;5.404;2023-10-08T10:56:42;2.93;;;2.00;;
71973;SDS011;59840;52.122;5.404;2023-10-08T10:59:11;2.30;;;2.10;;
71973;SDS011;59840;52.122;5.404;2023-10-08T11:02:00;3.65;;;2.28;;
71973;SDS011;59840;52.122;5.404;2023-10-08T11:04:47;3.25;;;2.45;;
71973;SDS011;59840;52.122;5.404;2023-10-08T11:07:16;4.00;;;3.13;;
71973;SDS011;59840;52.122;5.404;2023-10-08T11:09:49;3.93;;;2.27;;
71973;SDS011;59840;52.122;5.404;2023-10-08T11:12:18;5.88;;;2.60;;
71973;SDS011;59840;52.122;5.404;2023-10-08T11:14:49;3.90;;;2.72;;
71973;SDS011;59840;52.122;5.404;2023-10-08T11:17:22;3.75;;;3.08;;
71973;SDS011;59840;52.122;5.404;2023-10-08T11:19:51;4.28;;;2.70;;
71973;SDS011;59840;52.122;5.404;2023-10-08T11:22:17;3.20;;;2.83;;
71973;SDS011;59840;52.122;5.404;2023-10-08T11:24:49;4.55;;;2.58;;
71973;SDS011;59840;52.122;5.404;2023-10-08T11:27:20;4.13;;;3.00;;
71973;SDS011;59840;52.122;5.404;2023-10-08T11:30:01;3.95;;;2.65;;
71973;SDS011;59840;52.122;5.404;2023-10-08T11:32:28;4.97;;;2.72;;
71973;SDS011;59840;52.122;5.404;2023-10-08T11:34:59;7.20;;;2.80;;
71973;SDS011;59840;52.122;5.404;2023-10-08T11:37:30;3.42;;;2.35;;
71973;SDS011;59840;52.122;5.404;2023-10-08T11:40:00;2.85;;;2.20;;
71973;SDS011;59840;52.122;5.404;2023-10-08T11:42:35;4.07;;;2.20;;
71973;SDS011;59840;52.122;5.404;2023-10-08T11:45:01;2.70;;;2.00;;
71973;SDS011;59840;52.122;5.404;2023-10-08T11:47:50;3.10;;;1.83;;
71973;SDS011;59840;52.122;5.404;2023-10-08T11:50:38;2.40;;;1.70;;
71973;SDS011;59840;52.122;5.404;2023-10-08T11:53:05;3.78;;;1.50;;
71973;SDS011;59840;52.122;5.404;2023-10-08T11:55:32;2.65;;;1.52;;
71973;SDS011;59840;52.122;5.404;2023-10-08T11:58:05;4.47;;;1.90;;
71973;SDS011;59840;52.122;5.404;2023-10-08T12:00:37;3.53;;;1.50;;
71973;SDS011;59840;52.122;5.404;2023-10-08T12:03:12;2.40;;;1.63;;
71973;SDS011;59840;52.122;5.404;2023-10-08T12:05:42;2.08;;;1.20;;
71973;SDS011;59840;52.122;5.404;2023-10-08T12:08:16;3.42;;;1.80;;
71973;SDS011;59840;52.122;5.404;2023-10-08T12:10:46;3.25;;;1.55;;
71973;SDS011;59840;52.122;5.404;2023-10-08T12:13:14;3.77;;;1.47;;
71973;SDS011;59840;52.122;5.404;2023-10-08T12:15:55;2.22;;;1.48;;
71973;SDS011;59840;52.122;5.404;2023-10-08T12:18:40;2.67;;;1.15;;
71973;SDS011;59840;52.122;5.404;2023-10-08T12:21:09;2.95;;;1.60;;
71973;SDS011;59840;52.122;5.404;2023-10-08T12:23:37;2.42;;;1.52;;
71973;SDS011;59840;52.122;5.404;2023-10-08T12:26:04;2.70;;;1.20;;
71973;SDS011;59840;52.122;5.404;2023-10-08T12:28:34;2.58;;;1.23;;
71973;SDS011;59840;52.122;5.404;2023-10-08T12:31:02;3.03;;;1.25;;
71973;SDS011;59840;52.122;5.404;2023-10-08T12:33:32;3.00;;;1.10;;
71973;SDS011;59840;52.122;5.404;2023-10-08T12:36:00;2.65;;;1.20;;
71973;SDS011;59840;52.122;5.404;2023-10-08T12:38:38;3.10;;;1.40;;
71973;SDS011;59840;52.122;5.404;2023-10-08T12:41:10;3.50;;;1.20;;
71973;SDS011;59840;52.122;5.404;2023-10-08T12:43:41;1.50;;;1.10;;
71973;SDS011;59840;52.122;5.404;2023-10-08T12:46:14;3.10;;;1.50;;
71973;SDS011;59840;52.122;5.404;2023-10-08T12:48:51;2.85;;;1.00;;
71973;SDS011;59840;52.122;5.404;2023-10-08T12:51:21;4.50;;;1.20;;
71973;SDS011;59840;52.122;5.404;2023-10-08T12:53:52;3.35;;;1.13;;
71973;SDS011;59840;52.122;5.404;2023-10-08T12:56:42;3.42;;;0.80;;
71973;SDS011;59840;52.122;5.404;2023-10-08T12:59:14;1.67;;;0.80;;
71973;SDS011;59840;52.122;5.404;2023-10-08T13:01:47;2.40;;;0.88;;
71973;SDS011;59840;52.122;5.404;2023-10-08T13:04:18;1.90;;;0.93;;
71973;SDS011;59840;52.122;5.404;2023-10-08T13:06:53;1.92;;;0.90;;
71973;SDS011;59840;52.122;5.404;2023-10-08T13:09:23;8.48;;;1.15;;
71973;SDS011;59840;52.122;5.404;2023-10-08T13:11:51;13.93;;;1.30;;
71973;SDS011;59840;52.122;5.404;2023-10-08T13:14:18;4.85;;;0.95;;
71973;SDS011;59840;52.122;5.404;2023-10-08T13:16:44;3.27;;;0.70;;
71973;SDS011;59840;52.122;5.404;2023-10-08T13:19:11;4.97;;;0.80;;
71973;SDS011;59840;52.122;5.404;2023-10-08T13:21:39;16.67;;;1.20;;
71973;SDS011;59840;52.122;5.404;2023-10-08T13:24:06;25.70;;;2.65;;
71973;SDS011;59840;52.122;5.404;2023-10-08T13:26:36;9.38;;;0.90;;
71973;SDS011;59840;52.122;5.404;2023-10-08T13:29:05;38.63;;;2.30;;
71973;SDS011;59840;52.122;5.404;2023-10-08T13:31:32;40.10;;;2.05;;
71973;SDS011;59840;52.122;5.404;2023-10-08T13:34:03;9.65;;;1.30;;
71973;SDS011;59840;52.122;5.404;2023-10-08T13:36:38;11.23;;;1.20;;
71973;SDS011;59840;52.122;5.404;2023-10-08T13:39:05;2.38;;;0.90;;
71973;SDS011;59840;52.122;5.404;2023-10-08T13:41:37;8.70;;;0.80;;
71973;SDS011;59840;52.122;5.404;2023-10-08T13:44:08;3.95;;;1.00;;
71973;SDS011;59840;52.122;5.404;2023-10-08T13:46:34;3.60;;;1.30;;
71973;SDS011;59840;52.122;5.404;2023-10-08T13:49:02;2.50;;;0.75;;
71973;SDS011;59840;52.122;5.404;2023-10-08T13:51:32;2.70;;;0.95;;
71973;SDS011;59840;52.122;5.404;2023-10-08T13:54:01;2.03;;;1.10;;
71973;SDS011;59840;52.122;5.404;2023-10-08T13:56:32;3.20;;;1.20;;
71973;SDS011;59840;52.122;5.404;2023-10-08T13:58:59;2.10;;;0.95;;
71973;SDS011;59840;52.122;5.404;2023-10-08T14:01:31;5.50;;;1.25;;
71973;SDS011;59840;52.122;5.404;2023-10-08T14:04:00;2.25;;;1.00;;
71973;SDS011;59840;52.122;5.404;2023-10-08T14:06:35;2.30;;;0.77;;
71973;SDS011;59840;52.122;5.404;2023-10-08T14:09:03;3.15;;;0.93;;
71973;SDS011;59840;52.122;5.404;2023-10-08T14:11:46;3.45;;;1.10;;
71973;SDS011;59840;52.122;5.404;2023-10-08T14:14:14;4.07;;;1.15;;
71973;SDS011;59840;52.122;5.404;2023-10-08T14:16:43;2.15;;;0.93;;
71973;SDS011;59840;52.122;5.404;2023-10-08T14:19:10;1.43;;;1.00;;
71973;SDS011;59840;52.122;5.404;2023-10-08T14:21:39;1.67;;;0.80;;
71973;SDS011;59840;52.122;5.404;2023-10-08T14:24:20;2.95;;;1.20;;
71973;SDS011;59840;52.122;5.404;2023-10-08T14:26:46;2.55;;;1.00;;
71973;SDS011;59840;52.122;5.404;2023-10-08T14:29:23;3.03;;;1.20;;
71973;SDS011;59840;52.122;5.404;2023-10-08T14:31:53;3.13;;;1.73;;
71973;SDS011;59840;52.122;5.404;2023-10-08T14:34:23;3.75;;;2.40;;
71973;SDS011;59840;52.122;5.404;2023-10-08T14:37:16;4.93;;;2.00;;
71973;SDS011;59840;52.122;5.404;2023-10-08T14:40:01;3.80;;;2.03;;
71973;SDS011;59840;52.122;5.404;2023-10-08T14:42:46;2.65;;;1.45;;
71973;SDS011;59840;52.122;5.404;2023-10-08T14:45:26;2.20;;;1.63;;
71973;SDS011;59840;52.122;5.404;2023-10-08T14:47:57;3.20;;;1.92;;
71973;SDS011;59840;52.122;5.404;2023-10-08T14:50:25;2.08;;;1.42;;
71973;SDS011;59840;52.122;5.404;2023-10-08T14:52:59;2.33;;;1.10;;
71973;SDS011;59840;52.122;5.404;2023-10-08T14:55:32;2.75;;;1.50;;
71973;SDS011;59840;52.122;5.404;2023-10-08T14:58:04;2.37;;;1.30;;
71973;SDS011;59840;52.122;5.404;2023-10-08T15:00:36;3.17;;;1.60;;
71973;SDS011;59840;52.122;5.404;2023-10-08T15:03:04;3.38;;;1.20;;
71973;SDS011;59840;52.122;5.404;2023-10-08T15:05:31;2.85;;;1.25;;
71973;SDS011;59840;52.122;5.404;2023-10-08T15:07:58;7.07;;;2.20;;
71973;SDS011;59840;52.122;5.404;2023-10-08T15:10:24;2.50;;;1.60;;
71973;SDS011;59840;52.122;5.404;2023-10-08T15:12:52;3.10;;;1.67;;
71973;SDS011;59840;52.122;5.404;2023-10-08T15:15:20;4.18;;;1.88;;
71973;SDS011;59840;52.122;5.404;2023-10-08T15:17:49;3.17;;;1.65;;
71973;SDS011;59840;52.122;5.404;2023-10-08T15:20:16;3.85;;;2.05;;
71973;SDS011;59840;52.122;5.404;2023-10-08T15:22:46;3.67;;;1.87;;
71973;SDS011;59840;52.122;5.404;2023-10-08T15:25:14;2.60;;;1.88;;
71973;SDS011;59840;52.122;5.404;2023-10-08T15:27:43;3.08;;;1.50;;
71973;SDS011;59840;52.122;5.404;2023-10-08T15:30:11;2.33;;;1.70;;
71973;SDS011;59840;52.122;5.404;2023-10-08T15:32:42;3.45;;;2.00;;
71973;SDS011;59840;52.122;5.404;2023-10-08T15:35:11;2.50;;;1.93;;
71973;SDS011;59840;52.122;5.404;2023-10-08T15:37:40;2.72;;;1.92;;
71973;SDS011;59840;52.122;5.404;2023-10-08T15:40:08;3.45;;;1.83;;